Aérodrome :
LOGIN :

S'inscrire | Disclaimer

   EN    FR    IT 

 










Légende :    VFR   VFR Marginal   IFR   IFR Intensif   IFR Très Intensif
Visi : 
Plafond : 
>= 8 km
>= 3000ft
5 à 8 km
1000 à 3000 ft
1500m à 5 km
500 à 1000 ft
800 à 1500m
200 à 500 ft
< 800m
< 200 ft
Symboles :   Orages  Brouillard  Fortes neiges  Fortes précipitations  Vent > 20 kt
SIGMETs :   Divers  Orages  Givrage  Turbulence  Onde Orograph.  Cendres Volcan.







- Altitude de l'aérodrome : 309 ft
- Code IATA : FNI
- Voir les cartes d'approche


LFTW - Nîmes Garons

DERNIER METAR :
  • 151400Z AUTO 20007KT 150V260 CAVOK 30/14 Q1023 NOSIG

METARs EXPIRÉS :
  • 151330Z AUTO 20009KT 160V260 CAVOK 30/14 Q1023 NOSIG
  • 151300Z AUTO 18009KT 140V210 CAVOK 29/13 Q1023 NOSIG
  • 151230Z AUTO 15009KT 110V190 9999 ///TCU 30/14 Q1023 BECMG NSC
  • 151200Z AUTO 16008KT 110V190 9999 ///TCU 29/13 Q1024 BECMG NSC
  • 151130Z AUTO 17008KT 130V210 CAVOK 31/13 Q1024 NOSIG

TAF TAF LFTW
Valide du 15 à 09h jusqu'au 16 à 09h UTC


150800Z 1509/1609 VRB05KT CAVOK
BECMG 1513/1515 18010KT
BECMG 1516/1518 VRB05KT
Pas de NOTAMs connus pour ce terrain.



MET'MAP, la Météo Aéronautique d'un coup d'oeil ! - Copyright ORBIFLY Décembre 2007 - Disclaimer

ORBIFLY MET'MAP TEAM :

Programmation & Développement : Alexandra Zaïnal
Conception & Développement : Baudouin d'Aumeries
Co-Programmation & Développement : Marc-Olivier Méhu
Soutien technique & logistique : Manuel Goepfert

Contact : metmap@orbifly.com




SOURCES & CREDITS :

   NOAA